createdAt,value
2018-12-10T00:00:52.654Z,7.15
2018-12-10T00:01:52.640Z,7.08
2018-12-10T00:02:52.627Z,7.12
2018-12-10T00:03:52.613Z,7.15
2018-12-10T00:04:52.602Z,7.05
2018-12-10T00:05:52.589Z,7.07
2018-12-10T00:06:52.574Z,7.01
2018-12-10T00:07:52.560Z,7.08
2018-12-10T00:08:52.546Z,7.14
2018-12-10T00:09:52.532Z,7.11
2018-12-10T00:10:52.519Z,7.14
2018-12-10T00:11:52.505Z,7.14
2018-12-10T00:12:52.493Z,7.18
2018-12-10T00:13:52.479Z,7.32
2018-12-10T00:14:52.465Z,7.29
2018-12-10T00:15:52.451Z,7.21
2018-12-10T00:16:52.436Z,7.26
2018-12-10T00:17:52.424Z,7.42
2018-12-10T00:18:52.414Z,7.41
2018-12-10T00:19:52.398Z,7.44
2018-12-10T00:20:52.383Z,7.36
2018-12-10T00:21:52.372Z,7.37
2018-12-10T00:22:52.358Z,7.34
2018-12-10T00:23:52.344Z,7.34
2018-12-10T00:24:52.331Z,7.41
2018-12-10T00:25:52.316Z,7.36
2018-12-10T00:26:52.302Z,7.37
2018-12-10T00:27:52.291Z,7.41
2018-12-10T00:28:52.276Z,7.47
2018-12-10T00:29:52.264Z,7.41
2018-12-10T00:30:52.249Z,7.45
2018-12-10T00:31:52.237Z,7.36
2018-12-10T00:32:52.226Z,7.36
2018-12-10T00:33:52.210Z,7.47
2018-12-10T00:34:52.197Z,7.45
2018-12-10T00:35:52.187Z,7.48
2018-12-10T00:36:52.171Z,7.48
2018-12-10T00:37:52.159Z,7.45
2018-12-10T00:38:52.145Z,7.47
2018-12-10T00:39:52.129Z,7.47
2018-12-10T00:40:52.116Z,7.52
2018-12-10T00:41:52.103Z,7.42
2018-12-10T00:42:52.089Z,7.50
2018-12-10T00:43:52.078Z,7.47
2018-12-10T00:44:52.064Z,7.45
2018-12-10T00:45:52.051Z,7.58
2018-12-10T00:46:52.041Z,7.60
2018-12-10T00:47:52.025Z,7.92
2018-12-10T00:48:52.012Z,7.96
2018-12-10T00:49:52.000Z,8.02
2018-12-10T00:50:51.986Z,7.94
2018-12-10T00:51:51.970Z,8.02
2018-12-10T00:52:51.958Z,7.95
2018-12-10T00:53:51.946Z,7.99
2018-12-10T00:54:51.935Z,7.95
2018-12-10T00:55:51.921Z,7.88
2018-12-10T00:56:51.909Z,8.00
2018-12-10T00:57:51.890Z,8.02
2018-12-10T00:58:51.879Z,7.86
2018-12-10T00:59:51.865Z,7.79
2018-12-10T01:00:51.851Z,7.77
2018-12-10T01:01:51.840Z,7.69
2018-12-10T01:02:51.827Z,7.63
2018-12-10T01:03:51.821Z,7.60
2018-12-10T01:04:51.800Z,7.66
2018-12-10T01:05:51.786Z,7.70
2018-12-10T01:06:51.774Z,7.58
2018-12-10T01:07:51.759Z,7.60
2018-12-10T01:08:51.745Z,7.70
2018-12-10T01:09:51.733Z,7.67
2018-12-10T01:10:51.738Z,7.69
2018-12-10T01:11:51.707Z,7.88
2018-12-10T01:12:51.694Z,7.91
2018-12-10T01:13:51.679Z,7.94
2018-12-10T01:14:51.666Z,7.91
2018-12-10T01:15:51.654Z,7.91
2018-12-10T01:16:51.638Z,7.95
2018-12-10T01:17:51.628Z,7.95
2018-12-10T01:18:51.613Z,7.89
2018-12-10T01:19:51.599Z,7.82
2018-12-10T01:20:51.586Z,7.79
2018-12-10T01:21:51.573Z,7.76
2018-12-10T01:22:51.561Z,7.74
2018-12-10T01:23:51.545Z,7.76
2018-12-10T01:24:51.532Z,7.70
2018-12-10T01:25:51.520Z,7.70
2018-12-10T01:26:51.510Z,7.70
2018-12-10T01:27:51.495Z,7.57
2018-12-10T01:28:51.479Z,7.42
2018-12-10T01:29:51.466Z,7.41
2018-12-10T01:30:51.452Z,7.45
2018-12-10T01:31:51.441Z,7.52
2018-12-10T01:32:51.427Z,7.54
2018-12-10T01:33:51.411Z,7.60
2018-12-10T01:34:51.398Z,7.69
2018-12-10T01:35:51.384Z,7.58
2018-12-10T01:36:51.374Z,7.66
2018-12-10T01:37:51.359Z,7.67
2018-12-10T01:38:51.344Z,7.60
2018-12-10T01:39:51.330Z,7.67
2018-12-10T01:40:51.316Z,7.62
2018-12-10T01:41:51.406Z,7.66
2018-12-10T01:42:51.291Z,7.60
2018-12-10T01:43:51.276Z,7.52
2018-12-10T01:44:51.262Z,7.44
2018-12-10T01:45:51.249Z,7.44
2018-12-10T01:46:51.239Z,7.45
2018-12-10T01:47:51.224Z,7.44
2018-12-10T01:48:51.209Z,7.52
2018-12-10T01:49:51.197Z,7.55
2018-12-10T01:50:51.184Z,7.45
2018-12-10T01:51:51.167Z,7.39
2018-12-10T01:52:51.158Z,7.47
2018-12-10T01:53:51.141Z,7.37
2018-12-10T01:54:51.128Z,7.27
2018-12-10T01:55:51.116Z,7.45
2018-12-10T01:56:51.103Z,7.33
2018-12-10T01:57:51.088Z,7.29
2018-12-10T01:58:51.074Z,7.45
2018-12-10T01:59:51.060Z,7.37
2018-12-10T02:00:51.051Z,7.50
2018-12-10T02:01:51.033Z,7.32
2018-12-10T02:02:51.020Z,7.37
2018-12-10T02:03:51.006Z,7.27
2018-12-10T02:04:50.992Z,7.27
2018-12-10T02:05:50.979Z,7.32
2018-12-10T02:06:50.968Z,7.26
2018-12-10T02:07:50.955Z,7.27
2018-12-10T02:08:50.939Z,7.21
2018-12-10T02:09:50.926Z,7.21
2018-12-10T02:10:50.912Z,7.29
2018-12-10T02:11:50.899Z,7.24
2018-12-10T02:12:50.884Z,7.33
2018-12-10T02:13:50.873Z,7.34
2018-12-10T02:14:50.858Z,7.41
2018-12-10T02:15:50.846Z,7.39
2018-12-10T02:16:50.831Z,7.52
2018-12-10T02:17:50.819Z,7.45
2018-12-10T02:18:50.804Z,7.45
2018-12-10T02:19:50.791Z,7.42
2018-12-10T02:20:50.778Z,7.29
2018-12-10T02:21:50.764Z,7.41
2018-12-10T02:22:50.752Z,7.36
2018-12-10T02:23:50.737Z,7.23
2018-12-10T02:24:50.722Z,7.29
2018-12-10T02:25:50.712Z,7.19
2018-12-10T02:26:50.699Z,7.18
2018-12-10T02:27:50.682Z,7.23
2018-12-10T02:28:50.670Z,7.32
2018-12-10T02:29:50.660Z,7.24
2018-12-10T02:30:50.656Z,7.29
2018-12-10T02:31:50.631Z,7.21
2018-12-10T02:32:50.617Z,7.29
2018-12-10T02:33:50.602Z,7.23
2018-12-10T02:34:50.589Z,7.27
2018-12-10T02:35:50.577Z,7.21
2018-12-10T02:36:50.564Z,7.26
2018-12-10T02:37:50.549Z,7.30
2018-12-10T02:38:50.537Z,7.19
2018-12-10T02:39:50.523Z,7.19
2018-12-10T02:40:50.513Z,7.16
2018-12-10T02:41:50.495Z,7.16
2018-12-10T02:42:50.496Z,7.24
2018-12-10T02:43:50.467Z,7.18
2018-12-10T02:44:50.611Z,7.24
2018-12-10T02:45:50.442Z,7.24
2018-12-10T02:46:50.428Z,7.27
2018-12-10T02:47:50.416Z,7.16
2018-12-10T02:48:50.402Z,7.26
2018-12-10T02:49:50.391Z,7.21
2018-12-10T02:50:50.378Z,7.27
2018-12-10T02:51:50.360Z,7.33
2018-12-10T02:52:50.349Z,7.27
2018-12-10T02:53:50.336Z,7.36
2018-12-10T02:54:50.321Z,7.29
2018-12-10T02:55:50.306Z,7.26
2018-12-10T02:56:50.293Z,7.36
2018-12-10T02:57:50.290Z,7.27
2018-12-10T02:58:50.270Z,7.30
2018-12-10T02:59:50.254Z,7.36
2018-12-10T03:00:50.242Z,7.39
2018-12-10T03:01:50.228Z,7.41
2018-12-10T03:02:50.212Z,7.39
2018-12-10T03:03:50.201Z,7.32
2018-12-10T03:04:50.186Z,7.36
2018-12-10T03:05:50.175Z,7.41
2018-12-10T03:06:50.160Z,7.33
2018-12-10T03:07:50.146Z,7.32
2018-12-10T03:08:50.136Z,7.36
2018-12-10T03:09:50.124Z,7.23
2018-12-10T03:10:50.106Z,7.29
2018-12-10T03:11:50.092Z,7.24
2018-12-10T03:12:50.082Z,7.26
2018-12-10T03:13:50.069Z,7.08
2018-12-10T03:14:50.050Z,7.15
2018-12-10T03:15:50.037Z,7.26
2018-12-10T03:16:50.024Z,7.27
2018-12-10T03:17:50.010Z,7.21
2018-12-10T03:18:49.997Z,7.23
2018-12-10T03:19:49.983Z,7.18
2018-12-10T03:20:49.970Z,7.24
2018-12-10T03:21:49.956Z,7.14
2018-12-10T03:22:49.941Z,7.12
2018-12-10T03:23:49.931Z,7.18
2018-12-10T03:24:49.930Z,7.26
2018-12-10T03:25:49.904Z,7.14
2018-12-10T03:26:49.892Z,7.14
2018-12-10T03:27:49.876Z,7.11
2018-12-10T03:28:49.861Z,7.09
2018-12-10T03:29:49.849Z,7.12
2018-12-10T03:30:49.838Z,7.08
2018-12-10T03:31:49.845Z,7.08
2018-12-10T03:32:49.811Z,6.96
2018-12-10T03:33:49.798Z,6.96
2018-12-10T03:34:49.782Z,6.99
2018-12-10T03:35:49.767Z,7.00
2018-12-10T03:36:49.757Z,6.96
2018-12-10T03:37:49.743Z,6.96
2018-12-10T03:38:49.726Z,6.89
2018-12-10T03:39:49.712Z,6.83
2018-12-10T03:40:49.714Z,6.93
2018-12-10T03:41:49.688Z,6.91
2018-12-10T03:42:49.673Z,7.04
2018-12-10T03:43:49.660Z,6.93
2018-12-10T03:44:49.669Z,7.00
2018-12-10T03:45:49.635Z,7.01
2018-12-10T03:46:49.621Z,6.96
2018-12-10T03:47:49.606Z,7.05
2018-12-10T03:48:49.590Z,6.91
2018-12-10T03:49:49.580Z,7.04
2018-12-10T03:50:49.569Z,6.94
2018-12-10T03:51:49.551Z,6.94
2018-12-10T03:52:49.536Z,7.01
2018-12-10T03:53:49.526Z,6.94
2018-12-10T03:54:49.510Z,7.04
2018-12-10T03:55:49.497Z,6.93
2018-12-10T03:56:49.483Z,7.05
2018-12-10T03:57:49.628Z,7.00
2018-12-10T03:58:49.458Z,6.91
2018-12-10T03:59:49.440Z,7.04
2018-12-10T04:00:49.430Z,6.99
2018-12-10T04:01:49.417Z,7.00
2018-12-10T04:02:49.402Z,7.00
2018-12-10T04:03:49.389Z,7.04
2018-12-10T04:04:49.374Z,6.93
2018-12-10T04:05:49.360Z,7.05
2018-12-10T04:06:49.347Z,6.97
2018-12-10T04:07:49.337Z,6.91
2018-12-10T04:08:49.321Z,6.99
2018-12-10T04:09:49.308Z,7.00
2018-12-10T04:10:49.295Z,7.05
2018-12-10T04:11:49.283Z,6.99
2018-12-10T04:12:49.267Z,7.05
2018-12-10T04:13:49.254Z,7.11
2018-12-10T04:14:49.242Z,7.15
2018-12-10T04:15:49.226Z,7.11
2018-12-10T04:16:49.216Z,7.23
2018-12-10T04:17:49.199Z,7.23
2018-12-10T04:18:49.189Z,7.37
2018-12-10T04:19:49.173Z,7.39
2018-12-10T04:20:49.161Z,7.39
2018-12-10T04:21:49.146Z,7.45
2018-12-10T04:22:49.146Z,7.41
2018-12-10T04:23:49.119Z,7.34
2018-12-10T04:24:49.105Z,7.39
2018-12-10T04:25:49.095Z,7.36
2018-12-10T04:26:49.078Z,7.27
2018-12-10T04:27:49.065Z,7.34
2018-12-10T04:28:49.052Z,7.32
2018-12-10T04:29:49.039Z,7.36
2018-12-10T04:30:49.083Z,7.33
2018-12-10T04:31:49.010Z,7.23
2018-12-10T04:32:48.999Z,7.36
2018-12-10T04:33:48.982Z,7.29
2018-12-10T04:34:48.971Z,7.39
2018-12-10T04:35:48.957Z,7.42
2018-12-10T04:36:48.942Z,7.27
2018-12-10T04:37:48.936Z,7.44
2018-12-10T04:38:48.922Z,7.32
2018-12-10T04:39:48.906Z,7.34
2018-12-10T04:40:48.897Z,7.39
2018-12-10T04:41:48.876Z,7.36
2018-12-10T04:42:48.861Z,7.36
2018-12-10T04:43:48.849Z,7.33
2018-12-10T04:44:48.944Z,7.42
2018-12-10T04:45:48.822Z,7.26
2018-12-10T04:46:48.807Z,7.26
2018-12-10T04:47:48.794Z,7.18
2018-12-10T04:48:48.781Z,7.24
2018-12-10T04:49:48.768Z,7.24
2018-12-10T04:50:48.754Z,7.29
2018-12-10T04:51:48.739Z,7.26
2018-12-10T04:52:48.726Z,7.21
2018-12-10T04:53:48.714Z,7.16
2018-12-10T04:54:48.703Z,7.11
2018-12-10T04:55:48.685Z,7.01
2018-12-10T04:56:48.673Z,7.08
2018-12-10T04:57:48.660Z,7.11
2018-12-10T04:58:48.645Z,7.14
2018-12-10T04:59:52.693Z,7.09
2018-12-10T05:00:48.619Z,7.08
2018-12-10T05:01:48.603Z,7.18
2018-12-10T05:02:48.601Z,7.12
2018-12-10T05:03:48.577Z,7.11
2018-12-10T05:04:48.563Z,7.19
2018-12-10T05:05:48.549Z,7.12
2018-12-10T05:06:48.537Z,7.15
2018-12-10T05:07:48.522Z,7.12
2018-12-10T05:08:48.508Z,7.07
2018-12-10T05:09:48.497Z,7.15
2018-12-10T05:10:48.483Z,7.12
2018-12-10T05:11:48.471Z,7.16
2018-12-10T05:12:48.456Z,7.15
2018-12-10T05:13:48.442Z,7.00
2018-12-10T05:14:48.428Z,6.96
2018-12-10T05:15:48.416Z,6.91
2018-12-10T05:16:48.403Z,7.00
2018-12-10T05:17:48.388Z,6.91
2018-12-10T05:18:48.376Z,6.97
2018-12-10T05:19:48.361Z,7.00
2018-12-10T05:20:48.347Z,6.91
2018-12-10T05:21:48.335Z,6.93
2018-12-10T05:22:48.320Z,6.97
2018-12-10T05:23:48.310Z,6.91
2018-12-10T05:24:48.294Z,6.94
2018-12-10T05:25:48.279Z,6.94
2018-12-10T05:26:48.267Z,6.90
2018-12-10T05:27:48.253Z,6.91
2018-12-10T05:28:48.238Z,6.90
2018-12-10T05:29:48.229Z,6.90
2018-12-10T05:30:48.212Z,6.82
2018-12-10T05:31:48.198Z,6.89
2018-12-10T05:32:48.184Z,6.87
2018-12-10T05:33:48.172Z,6.94
2018-12-10T05:34:48.157Z,6.81
2018-12-10T05:35:48.144Z,6.86
2018-12-10T05:36:48.129Z,6.89
2018-12-10T05:37:48.117Z,6.90
2018-12-10T05:38:48.105Z,6.96
2018-12-10T05:39:48.089Z,7.08
2018-12-10T05:40:48.076Z,7.00
2018-12-10T05:41:48.065Z,6.99
2018-12-10T05:42:48.051Z,7.01
2018-12-10T05:43:48.036Z,6.99
2018-12-10T05:44:48.021Z,6.87
2018-12-10T05:45:48.008Z,6.94
2018-12-10T05:46:48.002Z,6.99
2018-12-10T05:47:47.979Z,6.93
2018-12-10T05:48:47.968Z,6.90
2018-12-10T05:49:47.956Z,6.96
2018-12-10T05:50:47.942Z,6.91
2018-12-10T05:51:47.926Z,6.78
2018-12-10T05:52:47.921Z,6.72
2018-12-10T05:53:47.900Z,6.69
2018-12-10T05:54:47.886Z,6.79
2018-12-10T05:55:47.873Z,6.72
2018-12-10T05:56:47.858Z,6.72
2018-12-10T05:57:47.844Z,6.68
2018-12-10T05:58:47.831Z,6.75
2018-12-10T05:59:47.816Z,6.72
2018-12-10T06:00:47.876Z,6.72
2018-12-10T06:01:47.791Z,6.72
2018-12-10T06:02:47.775Z,6.82
2018-12-10T06:03:47.760Z,6.76
2018-12-10T06:04:47.751Z,6.69
2018-12-10T06:05:47.735Z,6.64
2018-12-10T06:06:47.720Z,6.68
2018-12-10T06:07:47.705Z,6.58
2018-12-10T06:08:47.693Z,6.58
2018-12-10T06:09:47.680Z,6.54
2018-12-10T06:10:47.669Z,6.60
2018-12-10T06:11:47.651Z,6.53
2018-12-10T06:12:47.641Z,6.40
2018-12-10T06:13:47.626Z,6.53
2018-12-10T06:14:47.612Z,6.54
2018-12-10T06:15:47.599Z,6.54
2018-12-10T06:16:47.585Z,6.53
2018-12-10T06:17:47.570Z,6.51
2018-12-10T06:18:47.672Z,6.50
2018-12-10T06:19:47.543Z,6.48
2018-12-10T06:20:47.528Z,6.43
2018-12-10T06:21:47.515Z,6.46
2018-12-10T06:22:47.501Z,6.50
2018-12-10T06:23:47.486Z,6.48
2018-12-10T06:24:47.472Z,6.54
2018-12-10T06:25:47.458Z,6.55
2018-12-10T06:26:47.446Z,6.43
2018-12-10T06:27:47.431Z,6.46
2018-12-10T06:28:47.420Z,6.42
2018-12-10T06:29:47.405Z,6.40
2018-12-10T06:30:47.392Z,6.55
2018-12-10T06:31:47.377Z,6.51
2018-12-10T06:32:47.362Z,6.53
2018-12-10T06:33:47.350Z,6.53
2018-12-10T06:34:47.337Z,6.53
2018-12-10T06:35:47.323Z,6.45
2018-12-10T06:36:47.308Z,6.50
2018-12-10T06:37:47.295Z,6.43
2018-12-10T06:38:47.280Z,6.45
2018-12-10T06:39:47.267Z,6.60
2018-12-10T06:40:47.253Z,6.61
2018-12-10T06:41:47.238Z,6.72
2018-12-10T06:42:47.226Z,6.64
2018-12-10T06:43:47.211Z,6.46
2018-12-10T06:44:47.196Z,6.60
2018-12-10T06:45:47.184Z,6.53
2018-12-10T06:46:47.170Z,6.43
2018-12-10T06:47:47.156Z,6.39
2018-12-10T06:48:47.145Z,6.48
2018-12-10T06:49:47.127Z,6.58
2018-12-10T06:50:47.113Z,6.51
2018-12-10T06:51:47.101Z,6.58
2018-12-10T06:52:47.088Z,6.58
2018-12-10T06:53:47.075Z,6.55
2018-12-10T06:54:47.060Z,6.65
2018-12-10T06:55:47.046Z,6.71
2018-12-10T06:56:47.032Z,6.69
2018-12-10T06:57:47.018Z,6.79
2018-12-10T06:58:47.004Z,6.96
2018-12-10T06:59:46.988Z,7.04
2018-12-10T07:00:46.974Z,7.14
2018-12-10T07:01:46.959Z,7.14
2018-12-10T07:02:46.946Z,7.15
2018-12-10T07:03:46.932Z,7.23
2018-12-10T07:04:46.920Z,7.16
2018-12-10T07:05:46.909Z,7.15
2018-12-10T07:06:46.890Z,7.16
2018-12-10T07:07:46.875Z,7.24
2018-12-10T07:08:46.863Z,7.24
2018-12-10T07:09:46.852Z,7.18
2018-12-10T07:10:46.836Z,7.27
2018-12-10T07:11:46.821Z,7.23
2018-12-10T07:12:46.809Z,7.24
2018-12-10T07:13:46.793Z,7.29
2018-12-10T07:14:46.784Z,7.27
2018-12-10T07:15:46.764Z,7.23
2018-12-10T07:16:46.754Z,7.33
2018-12-10T07:17:46.740Z,7.32
2018-12-10T07:18:46.727Z,7.39
2018-12-10T07:19:46.711Z,7.48
2018-12-10T07:20:46.697Z,7.30
2018-12-10T07:21:46.682Z,7.11
2018-12-10T07:22:46.668Z,7.01
2018-12-10T07:23:46.655Z,7.05
2018-12-10T07:24:46.640Z,6.94
2018-12-10T07:25:46.628Z,6.96
2018-12-10T07:26:46.613Z,7.07
2018-12-10T07:27:46.597Z,7.16
2018-12-10T07:28:46.585Z,7.23
2018-12-10T07:29:46.571Z,7.27
2018-12-10T07:30:46.557Z,7.19
2018-12-10T07:31:46.541Z,7.08
2018-12-10T07:32:46.527Z,7.00
2018-12-10T07:33:46.513Z,7.14
2018-12-10T07:34:46.499Z,7.15
2018-12-10T07:35:46.485Z,7.12
2018-12-10T07:36:46.472Z,7.08
2018-12-10T07:37:46.459Z,7.11
2018-12-10T07:38:46.443Z,7.04
2018-12-10T07:39:46.427Z,7.09
2018-12-10T07:40:46.413Z,7.05
2018-12-10T07:41:46.401Z,7.09
2018-12-10T07:42:46.387Z,7.08
2018-12-10T07:43:46.371Z,7.09
2018-12-10T07:44:46.358Z,7.11
2018-12-10T07:45:46.344Z,7.23
2018-12-10T07:46:46.330Z,7.14
2018-12-10T07:47:46.320Z,7.29
2018-12-10T07:48:46.302Z,7.33
2018-12-10T07:49:46.288Z,7.27
2018-12-10T07:50:46.274Z,7.23
2018-12-10T07:51:46.259Z,7.26
2018-12-10T07:52:46.247Z,7.21
2018-12-10T07:53:46.232Z,7.24
2018-12-10T07:54:46.220Z,7.27
2018-12-10T07:55:46.203Z,7.21
2018-12-10T07:56:46.190Z,7.21
2018-12-10T07:57:46.176Z,7.18
2018-12-10T07:58:46.162Z,7.26
2018-12-10T07:59:46.153Z,7.26
2018-12-10T08:00:46.133Z,7.26
2018-12-10T08:01:46.120Z,7.27
2018-12-10T08:02:46.106Z,7.36
2018-12-10T08:03:46.091Z,7.44
2018-12-10T08:04:46.077Z,7.37
2018-12-10T08:05:46.064Z,7.34
2018-12-10T08:06:46.051Z,7.39
2018-12-10T08:07:46.035Z,7.26
2018-12-10T08:08:46.022Z,7.23
2018-12-10T08:09:46.008Z,7.19
2018-12-10T08:10:45.996Z,7.12
2018-12-10T08:11:45.981Z,7.12
2018-12-10T08:12:45.967Z,7.01
2018-12-10T08:13:45.954Z,6.86
2018-12-10T08:14:46.022Z,7.15
2018-12-10T08:15:45.925Z,7.07
2018-12-10T08:16:45.912Z,7.09
2018-12-10T08:17:45.895Z,6.99
2018-12-10T08:18:45.885Z,7.15
2018-12-10T08:19:45.867Z,7.07
2018-12-10T08:20:45.854Z,7.07
2018-12-10T08:21:45.843Z,6.94
2018-12-10T08:22:45.845Z,7.00
2018-12-10T08:23:45.813Z,6.91
2018-12-10T08:24:45.800Z,7.07
2018-12-10T08:25:45.786Z,6.99
2018-12-10T08:26:45.773Z,6.97
2018-12-10T08:27:45.758Z,6.90
2018-12-10T08:28:45.745Z,6.94
2018-12-10T08:29:45.732Z,6.93
2018-12-10T08:30:45.717Z,6.87
2018-12-10T08:31:45.704Z,6.87
2018-12-10T08:32:45.689Z,6.75
2018-12-10T08:33:45.675Z,6.79
2018-12-10T08:34:45.662Z,6.78
2018-12-10T08:35:45.648Z,6.76
2018-12-10T08:36:45.634Z,6.68
2018-12-10T08:37:45.620Z,6.72
2018-12-10T08:38:45.607Z,6.68
2018-12-10T08:39:45.592Z,6.87
2018-12-10T08:40:45.578Z,6.89
2018-12-10T08:41:45.565Z,6.81
2018-12-10T08:42:45.552Z,6.94
2018-12-10T08:43:45.538Z,6.96
2018-12-10T08:44:45.525Z,6.94
2018-12-10T08:45:45.509Z,7.00
2018-12-10T08:46:45.498Z,6.91
2018-12-10T08:47:45.482Z,7.12
2018-12-10T08:48:45.468Z,7.12
2018-12-10T08:49:45.455Z,7.15
2018-12-10T08:50:45.443Z,7.19
2018-12-10T08:51:45.427Z,7.21
2018-12-10T08:52:45.414Z,7.16
2018-12-10T08:53:45.400Z,7.29
2018-12-10T08:54:45.390Z,7.24
2018-12-10T08:55:45.372Z,7.44
2018-12-10T08:56:45.358Z,7.34
2018-12-10T08:57:45.346Z,7.32
2018-12-10T08:58:45.334Z,7.39
2018-12-10T08:59:45.317Z,7.63
2018-12-10T09:00:45.304Z,7.51
2018-12-10T09:01:45.293Z,7.55
2018-12-10T09:02:45.278Z,7.62
2018-12-10T09:03:45.264Z,7.57
2018-12-10T09:04:45.250Z,7.50
2018-12-10T09:05:45.237Z,7.57
2018-12-10T09:06:45.225Z,7.67
2018-12-10T09:07:45.211Z,7.63
2018-12-10T09:08:45.198Z,7.57
2018-12-10T09:09:45.183Z,7.66
2018-12-10T09:10:45.174Z,7.69
2018-12-10T09:11:45.158Z,7.69
2018-12-10T09:12:47.144Z,7.60
2018-12-10T09:13:45.129Z,7.71
2018-12-10T09:14:45.116Z,7.67
2018-12-10T09:15:45.104Z,7.67
2018-12-10T09:16:45.091Z,7.58
2018-12-10T09:17:45.079Z,7.57
2018-12-10T09:18:45.063Z,7.58
2018-12-10T09:19:45.049Z,7.67
2018-12-10T09:20:45.036Z,7.67
2018-12-10T09:21:45.023Z,7.67
2018-12-10T09:22:45.010Z,7.67
2018-12-10T09:23:44.995Z,7.63
2018-12-10T09:24:44.981Z,7.73
2018-12-10T09:25:44.970Z,7.71
2018-12-10T09:26:44.958Z,7.74
2018-12-10T09:27:44.942Z,7.71
2018-12-10T09:28:44.929Z,7.85
2018-12-10T09:29:44.961Z,7.77
2018-12-10T09:30:44.905Z,7.79
2018-12-10T09:31:44.888Z,7.63
2018-12-10T09:32:44.876Z,7.67
2018-12-10T09:33:44.864Z,7.74
2018-12-10T09:34:44.853Z,7.66
2018-12-10T09:35:44.837Z,7.69
2018-12-10T09:36:44.823Z,7.67
2018-12-10T09:37:44.811Z,7.70
2018-12-10T09:38:44.799Z,7.74
2018-12-10T09:39:44.785Z,7.76
2018-12-10T09:40:44.769Z,7.71
2018-12-10T09:41:44.757Z,7.77
2018-12-10T09:42:44.743Z,7.82
2018-12-10T09:43:44.731Z,7.79
2018-12-10T09:44:44.718Z,7.99
2018-12-10T09:45:44.706Z,7.95
2018-12-10T09:46:44.701Z,8.00
2018-12-10T09:47:44.677Z,8.07
2018-12-10T09:48:44.667Z,8.18
2018-12-10T09:49:44.650Z,8.21
2018-12-10T09:50:44.639Z,8.31
2018-12-10T09:51:44.629Z,8.31
2018-12-10T09:52:44.615Z,8.24
2018-12-10T09:53:44.598Z,8.27
2018-12-10T09:54:44.587Z,8.28
2018-12-10T09:55:44.575Z,8.27
2018-12-10T09:56:44.559Z,8.27
2018-12-10T09:57:44.546Z,8.27
2018-12-10T09:58:44.533Z,8.40
2018-12-10T09:59:44.521Z,8.32
2018-12-10T10:00:44.507Z,8.39
2018-12-10T10:01:44.495Z,8.29
2018-12-10T10:02:44.483Z,8.43
2018-12-10T10:03:44.467Z,8.29
2018-12-10T10:04:44.454Z,8.34
2018-12-10T10:05:44.534Z,8.32
2018-12-10T10:06:44.430Z,8.42
2018-12-10T10:07:44.415Z,8.34
2018-12-10T10:08:44.401Z,8.50
2018-12-10T10:09:44.389Z,8.43
2018-12-10T10:10:44.376Z,8.47
2018-12-10T10:11:44.362Z,8.39
2018-12-10T10:12:44.359Z,8.55
2018-12-10T10:13:44.340Z,8.54
2018-12-10T10:14:44.326Z,8.57
2018-12-10T10:15:44.312Z,8.50
2018-12-10T10:16:44.301Z,8.70
2018-12-10T10:17:44.290Z,8.54
2018-12-10T10:18:44.274Z,8.49
2018-12-10T10:19:44.260Z,8.60
2018-12-10T10:20:44.246Z,8.58
2018-12-10T10:21:44.235Z,8.61
2018-12-10T10:22:44.222Z,8.64
2018-12-10T10:23:44.208Z,8.60
2018-12-10T10:24:44.197Z,8.55
2018-12-10T10:25:44.184Z,8.70
2018-12-10T10:26:44.175Z,8.65
2018-12-10T10:27:44.156Z,8.58
2018-12-10T10:28:44.145Z,8.67
2018-12-10T10:29:44.132Z,8.61
2018-12-10T10:30:44.221Z,8.60
2018-12-10T10:31:44.105Z,8.64
2018-12-10T10:32:44.092Z,8.76
2018-12-10T10:33:44.082Z,8.60
2018-12-10T10:34:44.068Z,8.65
2018-12-10T10:35:44.054Z,8.67
2018-12-10T10:36:44.693Z,8.49
2018-12-10T10:37:44.029Z,8.49
2018-12-10T10:38:44.018Z,8.55
2018-12-10T10:39:44.003Z,8.52
2018-12-10T10:40:43.990Z,8.55
2018-12-10T10:41:43.978Z,8.54
2018-12-10T10:42:43.968Z,8.55
2018-12-10T10:43:43.952Z,8.58
2018-12-10T10:44:43.939Z,8.64
2018-12-10T10:45:43.929Z,8.76
2018-12-10T10:46:43.914Z,8.80
2018-12-10T10:47:43.901Z,8.96
2018-12-10T10:48:43.888Z,9.10
2018-12-10T10:49:43.875Z,9.13
2018-12-10T10:50:43.863Z,9.24
2018-12-10T10:51:44.006Z,9.20
2018-12-10T10:52:43.839Z,9.17
2018-12-10T10:53:43.824Z,9.10
2018-12-10T10:54:43.814Z,9.12
2018-12-10T10:55:43.798Z,9.12
2018-12-10T10:56:43.785Z,9.13
2018-12-10T10:57:43.775Z,9.01
2018-12-10T10:58:43.762Z,9.15
2018-12-10T10:59:43.751Z,8.96
2018-12-10T11:00:43.736Z,8.91
2018-12-10T11:01:43.723Z,8.96
2018-12-10T11:02:43.711Z,8.91
2018-12-10T11:03:43.697Z,8.88
2018-12-10T11:04:43.685Z,8.94
2018-12-10T11:05:43.673Z,9.01
2018-12-10T11:06:43.661Z,9.03
2018-12-10T11:07:43.647Z,8.96
2018-12-10T11:08:43.637Z,9.10
2018-12-10T11:09:43.624Z,9.13
2018-12-10T11:10:43.612Z,9.08
2018-12-10T11:11:43.597Z,9.12
2018-12-10T11:12:43.587Z,9.06
2018-12-10T11:13:43.573Z,9.17
2018-12-10T11:14:43.560Z,9.10
2018-12-10T11:15:43.548Z,9.16
2018-12-10T11:16:43.536Z,9.24
2018-12-10T11:17:43.522Z,9.32
2018-12-10T11:18:43.534Z,9.26
2018-12-10T11:19:43.497Z,9.30
2018-12-10T11:20:43.484Z,9.31
2018-12-10T11:21:43.472Z,9.26
2018-12-10T11:22:43.460Z,9.23
2018-12-10T11:23:43.447Z,9.19
2018-12-10T11:24:43.433Z,9.23
2018-12-10T11:25:43.422Z,9.16
2018-12-10T11:26:43.542Z,9.16
2018-12-10T11:27:43.396Z,9.13
2018-12-10T11:28:43.385Z,9.03
2018-12-10T11:29:43.373Z,8.96
2018-12-10T11:30:43.360Z,8.98
2018-12-10T11:31:43.347Z,9.01
2018-12-10T11:32:43.335Z,8.91
2018-12-10T11:33:43.324Z,8.96
2018-12-10T11:34:43.310Z,8.89
2018-12-10T11:35:43.297Z,8.83
2018-12-10T11:36:43.284Z,8.88
2018-12-10T11:37:43.272Z,8.85
2018-12-10T11:38:43.369Z,8.91
2018-12-10T11:39:43.359Z,8.86
2018-12-10T11:40:43.234Z,8.89
2018-12-10T11:41:43.223Z,9.04
2018-12-10T11:42:43.210Z,9.03
2018-12-10T11:43:43.206Z,9.08
2018-12-10T11:44:43.185Z,9.15
2018-12-10T11:45:43.172Z,9.06
2018-12-10T11:46:43.162Z,9.20
2018-12-10T11:47:43.148Z,9.17
2018-12-10T11:48:43.135Z,9.17
2018-12-10T11:49:43.122Z,9.26
2018-12-10T11:50:43.114Z,9.27
2018-12-10T11:51:43.101Z,9.26
2018-12-10T11:52:43.086Z,9.27
2018-12-10T11:53:43.076Z,9.24
2018-12-10T11:54:43.061Z,9.23
2018-12-10T11:55:43.049Z,9.30
2018-12-10T11:56:43.037Z,9.24
2018-12-10T11:57:43.023Z,9.35
2018-12-10T11:58:43.018Z,9.26
2018-12-10T11:59:42.998Z,9.23
2018-12-10T12:00:42.988Z,9.26
2018-12-10T12:01:42.975Z,9.26
2018-12-10T12:02:42.962Z,9.16
2018-12-10T12:03:42.950Z,9.04
2018-12-10T12:04:42.935Z,9.06
2018-12-10T12:05:42.926Z,9.12
2018-12-10T12:06:42.913Z,9.01
2018-12-10T12:07:42.902Z,9.16
2018-12-10T12:08:42.888Z,9.08
2018-12-10T12:09:42.877Z,9.13
2018-12-10T12:10:42.863Z,9.13
2018-12-10T12:11:42.849Z,9.19
2018-12-10T12:12:42.838Z,8.96
2018-12-10T12:13:44.509Z,9.13
2018-12-10T12:14:42.811Z,8.88
2018-12-10T12:15:42.802Z,8.93
2018-12-10T12:16:42.788Z,8.93
2018-12-10T12:17:42.773Z,8.43
2018-12-10T12:18:42.762Z,8.42
2018-12-10T12:19:42.749Z,8.32
2018-12-10T12:20:42.735Z,8.31
2018-12-10T12:21:42.722Z,7.99
2018-12-10T12:22:42.710Z,8.07
2018-12-10T12:23:42.698Z,8.07
2018-12-10T12:24:42.684Z,7.96
2018-12-10T12:25:42.673Z,7.86
2018-12-10T12:26:42.658Z,7.84
2018-12-10T12:27:42.647Z,7.79
2018-12-10T12:28:42.640Z,7.79
2018-12-10T12:29:42.618Z,7.71
2018-12-10T12:30:42.606Z,7.79
2018-12-10T12:31:42.593Z,7.63
2018-12-10T12:32:42.578Z,7.48
2018-12-10T12:33:42.566Z,7.47
2018-12-10T12:34:42.554Z,7.39
2018-12-10T12:35:42.539Z,7.44
2018-12-10T12:36:42.526Z,7.41
2018-12-10T12:37:42.512Z,7.54
2018-12-10T12:38:42.500Z,7.63
2018-12-10T12:39:42.487Z,7.63
2018-12-10T12:40:42.479Z,7.54
2018-12-10T12:41:42.462Z,7.50
2018-12-10T12:42:42.447Z,7.50
2018-12-10T12:43:42.433Z,7.42
2018-12-10T12:44:42.420Z,7.52
2018-12-10T12:45:42.405Z,7.29
2018-12-10T12:46:42.392Z,7.23
2018-12-10T12:47:42.378Z,7.16
2018-12-10T12:48:42.364Z,7.14
2018-12-10T12:49:42.352Z,7.14
2018-12-10T12:50:42.338Z,7.12
2018-12-10T12:51:42.324Z,7.21
2018-12-10T12:52:42.311Z,7.14
2018-12-10T12:53:42.298Z,7.15
2018-12-10T12:54:42.283Z,7.15
2018-12-10T12:55:42.271Z,7.11
2018-12-10T12:56:42.255Z,7.19
2018-12-10T12:57:42.242Z,7.33
2018-12-10T12:58:42.230Z,7.24
2018-12-10T12:59:42.215Z,7.24
2018-12-10T13:00:42.306Z,7.32
2018-12-10T13:01:48.974Z,7.34
2018-12-10T13:02:42.174Z,7.33
2018-12-10T13:03:42.162Z,7.42
2018-12-10T13:04:42.145Z,7.37
2018-12-10T13:05:42.132Z,7.34
2018-12-10T13:06:42.125Z,7.44
2018-12-10T13:07:42.105Z,7.29
2018-12-10T13:08:42.092Z,7.24
2018-12-10T13:09:42.080Z,7.27
2018-12-10T13:10:42.065Z,7.39
2018-12-10T13:11:42.053Z,7.29
2018-12-10T13:12:42.036Z,7.37
2018-12-10T13:13:42.026Z,7.29
2018-12-10T13:14:42.011Z,7.32
2018-12-10T13:15:42.063Z,7.36
2018-12-10T13:16:49.243Z,7.36
2018-12-10T13:17:41.970Z,7.29
2018-12-10T13:18:41.955Z,7.36